Terminal Aerodrome Forecast
Issued by NWS

Home | Current Version | Previous Version | Text Only | Print | Product List | Glossary On
Versions: 1 2 3 4 5 6 7 8 9 10 11 12 13 14 15 16 17 18 19 20 21 22 23 24 25 26 27 28 29 30 31 32 33 34 35 36 37 38 39 40 41 42 43 44
000
FTUS45 KBOU 021052 AAA
TAFBJC
TAF AMD
KBJC 021052Z 0211/0306 32004KT P6SM SCT120 BKN200
     FM021500 VRB05KT P6SM FEW150 SCT220
     FM021800 08006KT P6SM FEW090 SCT220
     FM022100 08007KT P6SM VCTS SCT080CB BKN120
     FM030200 16012KT P6SM SCT080 BKN120
     FM030500 23008KT P6SM FEW090 SCT140=

USA.gov is the U.S. government's official web portal to all federal, state and local government web resources and services.